sensor_id;sensor_type;location;lat;lon;timestamp;P1;durP1;ratioP1;P2;durP2;ratioP2
13147;SDS011;6639;50.956;4.242;2024-02-16T00:00:01;2.80;;;2.28;;
13147;SDS011;6639;50.956;4.242;2024-02-16T00:02:29;2.83;;;1.95;;
13147;SDS011;6639;50.956;4.242;2024-02-16T00:04:57;2.75;;;2.30;;
13147;SDS011;6639;50.956;4.242;2024-02-16T00:07:23;3.83;;;2.38;;
13147;SDS011;6639;50.956;4.242;2024-02-16T00:09:50;2.85;;;2.10;;
13147;SDS011;6639;50.956;4.242;2024-02-16T00:12:20;2.03;;;1.92;;
13147;SDS011;6639;50.956;4.242;2024-02-16T00:14:47;2.72;;;2.00;;
13147;SDS011;6639;50.956;4.242;2024-02-16T00:17:14;2.80;;;1.90;;
13147;SDS011;6639;50.956;4.242;2024-02-16T00:19:43;2.70;;;2.10;;
13147;SDS011;6639;50.956;4.242;2024-02-16T00:22:10;2.20;;;2.00;;
13147;SDS011;6639;50.956;4.242;2024-02-16T00:24:37;3.28;;;2.25;;
13147;SDS011;6639;50.956;4.242;2024-02-16T00:27:05;3.15;;;2.00;;
13147;SDS011;6639;50.956;4.242;2024-02-16T00:29:33;3.13;;;2.38;;
13147;SDS011;6639;50.956;4.242;2024-02-16T00:32:00;2.67;;;2.05;;
13147;SDS011;6639;50.956;4.242;2024-02-16T00:34:27;2.97;;;2.03;;
13147;SDS011;6639;50.956;4.242;2024-02-16T00:36:53;3.17;;;2.13;;
13147;SDS011;6639;50.956;4.242;2024-02-16T00:39:20;2.33;;;2.13;;
13147;SDS011;6639;50.956;4.242;2024-02-16T00:41:48;2.67;;;2.47;;
13147;SDS011;6639;50.956;4.242;2024-02-16T00:44:14;2.35;;;2.00;;
13147;SDS011;6639;50.956;4.242;2024-02-16T00:46:43;3.40;;;2.10;;
13147;SDS011;6639;50.956;4.242;2024-02-16T00:49:10;3.63;;;2.30;;
13147;SDS011;6639;50.956;4.242;2024-02-16T00:51:37;2.50;;;2.20;;
13147;SDS011;6639;50.956;4.242;2024-02-16T00:54:05;2.25;;;2.05;;
13147;SDS011;6639;50.956;4.242;2024-02-16T00:56:32;2.17;;;1.83;;
13147;SDS011;6639;50.956;4.242;2024-02-16T00:58:59;2.63;;;1.90;;
13147;SDS011;6639;50.956;4.242;2024-02-16T01:01:26;3.45;;;2.40;;
13147;SDS011;6639;50.956;4.242;2024-02-16T01:03:54;5.15;;;2.35;;
13147;SDS011;6639;50.956;4.242;2024-02-16T01:06:21;2.75;;;2.05;;
13147;SDS011;6639;50.956;4.242;2024-02-16T01:08:48;2.85;;;2.47;;
13147;SDS011;6639;50.956;4.242;2024-02-16T01:11:15;3.78;;;2.13;;
13147;SDS011;6639;50.956;4.242;2024-02-16T01:13:42;4.13;;;2.50;;
13147;SDS011;6639;50.956;4.242;2024-02-16T01:16:09;2.35;;;2.15;;
13147;SDS011;6639;50.956;4.242;2024-02-16T01:18:36;2.95;;;2.17;;
13147;SDS011;6639;50.956;4.242;2024-02-16T01:21:05;2.70;;;2.20;;
13147;SDS011;6639;50.956;4.242;2024-02-16T01:23:32;2.53;;;2.20;;
13147;SDS011;6639;50.956;4.242;2024-02-16T01:25:59;3.40;;;2.10;;
13147;SDS011;6639;50.956;4.242;2024-02-16T01:28:25;2.25;;;2.00;;
13147;SDS011;6639;50.956;4.242;2024-02-16T01:30:52;2.55;;;2.13;;
13147;SDS011;6639;50.956;4.242;2024-02-16T01:33:22;2.97;;;2.00;;
13147;SDS011;6639;50.956;4.242;2024-02-16T01:35:49;2.28;;;1.95;;
13147;SDS011;6639;50.956;4.242;2024-02-16T01:38:17;2.72;;;2.42;;
13147;SDS011;6639;50.956;4.242;2024-02-16T01:40:46;3.17;;;2.10;;
13147;SDS011;6639;50.956;4.242;2024-02-16T01:43:13;2.72;;;2.10;;
13147;SDS011;6639;50.956;4.242;2024-02-16T01:45:44;2.15;;;2.05;;
13147;SDS011;6639;50.956;4.242;2024-02-16T01:48:12;3.22;;;2.28;;
13147;SDS011;6639;50.956;4.242;2024-02-16T01:50:40;4.28;;;2.30;;
13147;SDS011;6639;50.956;4.242;2024-02-16T01:53:08;2.97;;;2.08;;
13147;SDS011;6639;50.956;4.242;2024-02-16T01:55:37;3.53;;;2.58;;
13147;SDS011;6639;50.956;4.242;2024-02-16T01:58:04;3.15;;;2.20;;
13147;SDS011;6639;50.956;4.242;2024-02-16T02:00:32;3.13;;;2.03;;
13147;SDS011;6639;50.956;4.242;2024-02-16T02:02:59;2.40;;;2.20;;
13147;SDS011;6639;50.956;4.242;2024-02-16T02:05:26;2.60;;;2.40;;
13147;SDS011;6639;50.956;4.242;2024-02-16T02:07:53;2.58;;;2.00;;
13147;SDS011;6639;50.956;4.242;2024-02-16T02:10:20;3.10;;;2.38;;
13147;SDS011;6639;50.956;4.242;2024-02-16T02:12:48;2.90;;;2.67;;
13147;SDS011;6639;50.956;4.242;2024-02-16T02:15:15;2.70;;;2.50;;
13147;SDS011;6639;50.956;4.242;2024-02-16T02:17:42;3.13;;;2.60;;
13147;SDS011;6639;50.956;4.242;2024-02-16T02:20:09;3.42;;;2.13;;
13147;SDS011;6639;50.956;4.242;2024-02-16T02:22:38;2.50;;;2.28;;
13147;SDS011;6639;50.956;4.242;2024-02-16T02:25:05;3.10;;;2.13;;
13147;SDS011;6639;50.956;4.242;2024-02-16T02:27:35;3.70;;;2.10;;
13147;SDS011;6639;50.956;4.242;2024-02-16T02:30:03;2.45;;;2.30;;
13147;SDS011;6639;50.956;4.242;2024-02-16T02:32:31;2.88;;;2.35;;
13147;SDS011;6639;50.956;4.242;2024-02-16T02:34:58;3.97;;;2.30;;
13147;SDS011;6639;50.956;4.242;2024-02-16T02:37:25;2.47;;;2.28;;
13147;SDS011;6639;50.956;4.242;2024-02-16T02:39:54;3.50;;;2.45;;
13147;SDS011;6639;50.956;4.242;2024-02-16T02:42:21;3.45;;;2.25;;
13147;SDS011;6639;50.956;4.242;2024-02-16T02:44:48;4.03;;;2.20;;
13147;SDS011;6639;50.956;4.242;2024-02-16T02:47:16;2.97;;;2.33;;
13147;SDS011;6639;50.956;4.242;2024-02-16T02:49:43;2.63;;;2.35;;
13147;SDS011;6639;50.956;4.242;2024-02-16T02:52:10;2.58;;;1.98;;
13147;SDS011;6639;50.956;4.242;2024-02-16T02:54:37;2.60;;;2.40;;
13147;SDS011;6639;50.956;4.242;2024-02-16T02:57:05;3.15;;;2.35;;
13147;SDS011;6639;50.956;4.242;2024-02-16T02:59:32;4.88;;;2.60;;
13147;SDS011;6639;50.956;4.242;2024-02-16T03:01:59;2.58;;;2.38;;
13147;SDS011;6639;50.956;4.242;2024-02-16T03:04:26;3.83;;;2.33;;
13147;SDS011;6639;50.956;4.242;2024-02-16T03:06:53;2.67;;;2.42;;
13147;SDS011;6639;50.956;4.242;2024-02-16T03:09:20;3.47;;;2.50;;
13147;SDS011;6639;50.956;4.242;2024-02-16T03:11:47;4.10;;;2.75;;
13147;SDS011;6639;50.956;4.242;2024-02-16T03:14:16;3.03;;;2.50;;
13147;SDS011;6639;50.956;4.242;2024-02-16T03:16:43;2.80;;;2.22;;
13147;SDS011;6639;50.956;4.242;2024-02-16T03:19:09;3.47;;;2.80;;
13147;SDS011;6639;50.956;4.242;2024-02-16T03:21:36;4.28;;;2.83;;
13147;SDS011;6639;50.956;4.242;2024-02-16T03:24:03;3.92;;;2.83;;
13147;SDS011;6639;50.956;4.242;2024-02-16T03:26:31;3.42;;;3.03;;
13147;SDS011;6639;50.956;4.242;2024-02-16T03:28:58;4.30;;;2.80;;
13147;SDS011;6639;50.956;4.242;2024-02-16T03:31:26;2.95;;;2.67;;
13147;SDS011;6639;50.956;4.242;2024-02-16T03:33:54;3.78;;;3.17;;
13147;SDS011;6639;50.956;4.242;2024-02-16T03:36:21;4.40;;;2.97;;
13147;SDS011;6639;50.956;4.242;2024-02-16T03:38:48;2.85;;;2.63;;
13147;SDS011;6639;50.956;4.242;2024-02-16T03:41:18;3.60;;;2.90;;
13147;SDS011;6639;50.956;4.242;2024-02-16T03:43:45;4.72;;;2.63;;
13147;SDS011;6639;50.956;4.242;2024-02-16T03:46:12;4.63;;;3.03;;
13147;SDS011;6639;50.956;4.242;2024-02-16T03:48:41;5.03;;;3.10;;
13147;SDS011;6639;50.956;4.242;2024-02-16T03:51:08;4.68;;;2.78;;
13147;SDS011;6639;50.956;4.242;2024-02-16T03:53:35;3.75;;;2.90;;
13147;SDS011;6639;50.956;4.242;2024-02-16T03:56:02;3.15;;;2.70;;
13147;SDS011;6639;50.956;4.242;2024-02-16T03:58:31;4.80;;;3.35;;
13147;SDS011;6639;50.956;4.242;2024-02-16T04:00:57;5.32;;;3.03;;
13147;SDS011;6639;50.956;4.242;2024-02-16T04:03:24;3.47;;;2.70;;
13147;SDS011;6639;50.956;4.242;2024-02-16T04:05:53;3.50;;;3.10;;
13147;SDS011;6639;50.956;4.242;2024-02-16T04:08:20;4.18;;;3.20;;
13147;SDS011;6639;50.956;4.242;2024-02-16T04:10:47;4.38;;;3.05;;
13147;SDS011;6639;50.956;4.242;2024-02-16T04:13:13;4.90;;;3.40;;
13147;SDS011;6639;50.956;4.242;2024-02-16T04:15:41;3.58;;;3.05;;
13147;SDS011;6639;50.956;4.242;2024-02-16T04:18:08;5.00;;;3.70;;
13147;SDS011;6639;50.956;4.242;2024-02-16T04:20:35;6.43;;;3.20;;
13147;SDS011;6639;50.956;4.242;2024-02-16T04:23:04;4.15;;;3.13;;
13147;SDS011;6639;50.956;4.242;2024-02-16T04:25:31;4.80;;;3.15;;
13147;SDS011;6639;50.956;4.242;2024-02-16T04:27:58;4.25;;;3.10;;
13147;SDS011;6639;50.956;4.242;2024-02-16T04:30:25;4.70;;;2.88;;
13147;SDS011;6639;50.956;4.242;2024-02-16T04:32:52;3.65;;;2.90;;
13147;SDS011;6639;50.956;4.242;2024-02-16T04:35:19;5.47;;;3.58;;
13147;SDS011;6639;50.956;4.242;2024-02-16T04:37:46;3.88;;;2.97;;
13147;SDS011;6639;50.956;4.242;2024-02-16T04:40:14;4.38;;;3.20;;
13147;SDS011;6639;50.956;4.242;2024-02-16T04:42:41;6.47;;;3.40;;
13147;SDS011;6639;50.956;4.242;2024-02-16T04:45:10;7.68;;;3.90;;
13147;SDS011;6639;50.956;4.242;2024-02-16T04:47:38;5.10;;;3.20;;
13147;SDS011;6639;50.956;4.242;2024-02-16T04:50:05;5.57;;;3.50;;
13147;SDS011;6639;50.956;4.242;2024-02-16T04:52:35;6.53;;;3.60;;
13147;SDS011;6639;50.956;4.242;2024-02-16T04:55:03;6.28;;;3.95;;
13147;SDS011;6639;50.956;4.242;2024-02-16T04:57:32;3.72;;;3.28;;
13147;SDS011;6639;50.956;4.242;2024-02-16T05:00:02;8.77;;;3.25;;
13147;SDS011;6639;50.956;4.242;2024-02-16T05:02:30;7.57;;;3.70;;
13147;SDS011;6639;50.956;4.242;2024-02-16T05:04:57;5.40;;;3.42;;
13147;SDS011;6639;50.956;4.242;2024-02-16T05:07:23;5.28;;;3.70;;
13147;SDS011;6639;50.956;4.242;2024-02-16T05:09:50;5.35;;;3.38;;
13147;SDS011;6639;50.956;4.242;2024-02-16T05:12:21;6.70;;;4.20;;
13147;SDS011;6639;50.956;4.242;2024-02-16T05:14:49;5.95;;;3.35;;
13147;SDS011;6639;50.956;4.242;2024-02-16T05:17:17;5.63;;;3.63;;
13147;SDS011;6639;50.956;4.242;2024-02-16T05:19:45;7.47;;;4.13;;
13147;SDS011;6639;50.956;4.242;2024-02-16T05:22:12;7.78;;;4.07;;
13147;SDS011;6639;50.956;4.242;2024-02-16T05:24:38;7.20;;;4.22;;
13147;SDS011;6639;50.956;4.242;2024-02-16T05:27:05;6.25;;;4.03;;
13147;SDS011;6639;50.956;4.242;2024-02-16T05:29:32;6.15;;;3.58;;
13147;SDS011;6639;50.956;4.242;2024-02-16T05:32:01;6.20;;;4.88;;
13147;SDS011;6639;50.956;4.242;2024-02-16T05:34:28;6.90;;;4.30;;
13147;SDS011;6639;50.956;4.242;2024-02-16T05:36:58;5.75;;;3.85;;
13147;SDS011;6639;50.956;4.242;2024-02-16T05:39:26;7.65;;;4.25;;
13147;SDS011;6639;50.956;4.242;2024-02-16T05:41:56;7.28;;;4.95;;
13147;SDS011;6639;50.956;4.242;2024-02-16T05:44:23;5.10;;;3.90;;
13147;SDS011;6639;50.956;4.242;2024-02-16T05:46:50;5.55;;;3.88;;
13147;SDS011;6639;50.956;4.242;2024-02-16T05:49:18;5.65;;;4.38;;
13147;SDS011;6639;50.956;4.242;2024-02-16T05:51:45;7.32;;;4.60;;
13147;SDS011;6639;50.956;4.242;2024-02-16T05:54:40;6.70;;;3.85;;
13147;SDS011;6639;50.956;4.242;2024-02-16T05:57:07;5.53;;;3.97;;
13147;SDS011;6639;50.956;4.242;2024-02-16T05:59:34;6.20;;;3.83;;
13147;SDS011;6639;50.956;4.242;2024-02-16T06:02:03;5.70;;;3.90;;
13147;SDS011;6639;50.956;4.242;2024-02-16T06:04:31;4.63;;;3.33;;
13147;SDS011;6639;50.956;4.242;2024-02-16T06:06:59;8.13;;;4.13;;
13147;SDS011;6639;50.956;4.242;2024-02-16T06:09:26;5.50;;;3.40;;
13147;SDS011;6639;50.956;4.242;2024-02-16T06:11:59;5.82;;;3.10;;
13147;SDS011;6639;50.956;4.242;2024-02-16T06:14:30;4.10;;;3.67;;
13147;SDS011;6639;50.956;4.242;2024-02-16T06:16:57;4.63;;;3.72;;
13147;SDS011;6639;50.956;4.242;2024-02-16T06:19:24;4.22;;;3.28;;
13147;SDS011;6639;50.956;4.242;2024-02-16T06:21:53;4.10;;;3.13;;
13147;SDS011;6639;50.956;4.242;2024-02-16T06:24:21;3.75;;;2.80;;
13147;SDS011;6639;50.956;4.242;2024-02-16T06:26:48;5.15;;;3.10;;
13147;SDS011;6639;50.956;4.242;2024-02-16T06:29:15;4.28;;;3.17;;
13147;SDS011;6639;50.956;4.242;2024-02-16T06:31:42;10.40;;;3.90;;
13147;SDS011;6639;50.956;4.242;2024-02-16T06:34:09;3.88;;;3.17;;
13147;SDS011;6639;50.956;4.242;2024-02-16T06:36:35;7.70;;;3.03;;
13147;SDS011;6639;50.956;4.242;2024-02-16T06:39:04;5.63;;;3.13;;
13147;SDS011;6639;50.956;4.242;2024-02-16T06:41:31;3.03;;;2.80;;
13147;SDS011;6639;50.956;4.242;2024-02-16T06:43:57;5.85;;;3.58;;
13147;SDS011;6639;50.956;4.242;2024-02-16T06:46:24;4.03;;;2.65;;
13147;SDS011;6639;50.956;4.242;2024-02-16T06:48:52;6.82;;;3.13;;
13147;SDS011;6639;50.956;4.242;2024-02-16T06:51:21;3.63;;;3.33;;
13147;SDS011;6639;50.956;4.242;2024-02-16T06:53:48;4.53;;;3.33;;
13147;SDS011;6639;50.956;4.242;2024-02-16T06:56:18;4.93;;;3.67;;
13147;SDS011;6639;50.956;4.242;2024-02-16T06:58:45;4.65;;;3.65;;
13147;SDS011;6639;50.956;4.242;2024-02-16T07:01:12;4.53;;;3.28;;
13147;SDS011;6639;50.956;4.242;2024-02-16T07:03:39;5.22;;;3.22;;
13147;SDS011;6639;50.956;4.242;2024-02-16T07:06:06;6.15;;;3.35;;
13147;SDS011;6639;50.956;4.242;2024-02-16T07:08:36;3.95;;;3.40;;
13147;SDS011;6639;50.956;4.242;2024-02-16T07:11:03;5.68;;;3.80;;
13147;SDS011;6639;50.956;4.242;2024-02-16T07:13:31;3.28;;;2.97;;
13147;SDS011;6639;50.956;4.242;2024-02-16T07:15:59;3.63;;;3.20;;
13147;SDS011;6639;50.956;4.242;2024-02-16T07:18:26;5.97;;;3.35;;
13147;SDS011;6639;50.956;4.242;2024-02-16T07:20:53;4.40;;;3.13;;
13147;SDS011;6639;50.956;4.242;2024-02-16T07:23:20;3.58;;;3.17;;
13147;SDS011;6639;50.956;4.242;2024-02-16T07:25:47;5.20;;;3.22;;
13147;SDS011;6639;50.956;4.242;2024-02-16T07:28:14;4.07;;;3.15;;
13147;SDS011;6639;50.956;4.242;2024-02-16T07:30:43;4.22;;;3.33;;
13147;SDS011;6639;50.956;4.242;2024-02-16T07:33:10;3.75;;;2.85;;
13147;SDS011;6639;50.956;4.242;2024-02-16T07:35:38;4.45;;;3.08;;
13147;SDS011;6639;50.956;4.242;2024-02-16T07:38:05;5.28;;;2.95;;
13147;SDS011;6639;50.956;4.242;2024-02-16T07:40:32;9.52;;;3.33;;
13147;SDS011;6639;50.956;4.242;2024-02-16T07:42:59;5.63;;;3.60;;
13147;SDS011;6639;50.956;4.242;2024-02-16T07:45:27;5.25;;;3.28;;
13147;SDS011;6639;50.956;4.242;2024-02-16T07:47:55;5.00;;;3.38;;
13147;SDS011;6639;50.956;4.242;2024-02-16T07:50:23;4.68;;;3.20;;
13147;SDS011;6639;50.956;4.242;2024-02-16T07:52:51;6.07;;;3.80;;
13147;SDS011;6639;50.956;4.242;2024-02-16T07:55:18;5.03;;;3.38;;
13147;SDS011;6639;50.956;4.242;2024-02-16T07:57:45;3.60;;;2.97;;
13147;SDS011;6639;50.956;4.242;2024-02-16T08:00:12;4.07;;;3.22;;
13147;SDS011;6639;50.956;4.242;2024-02-16T08:02:41;3.90;;;3.50;;
13147;SDS011;6639;50.956;4.242;2024-02-16T08:05:10;8.05;;;3.97;;
13147;SDS011;6639;50.956;4.242;2024-02-16T08:07:38;4.25;;;2.95;;
13147;SDS011;6639;50.956;4.242;2024-02-16T08:10:06;5.80;;;3.75;;
13147;SDS011;6639;50.956;4.242;2024-02-16T08:12:34;5.72;;;3.95;;
13147;SDS011;6639;50.956;4.242;2024-02-16T08:15:03;3.92;;;3.42;;
13147;SDS011;6639;50.956;4.242;2024-02-16T08:17:32;5.18;;;3.17;;
13147;SDS011;6639;50.956;4.242;2024-02-16T08:19:58;5.43;;;3.25;;
13147;SDS011;6639;50.956;4.242;2024-02-16T08:22:27;6.15;;;3.28;;
13147;SDS011;6639;50.956;4.242;2024-02-16T08:24:54;6.57;;;3.75;;
13147;SDS011;6639;50.956;4.242;2024-02-16T08:27:21;7.35;;;3.30;;
13147;SDS011;6639;50.956;4.242;2024-02-16T08:29:48;5.40;;;3.22;;
13147;SDS011;6639;50.956;4.242;2024-02-16T08:32:15;6.20;;;3.13;;
13147;SDS011;6639;50.956;4.242;2024-02-16T08:34:43;4.57;;;3.28;;
13147;SDS011;6639;50.956;4.242;2024-02-16T08:37:10;3.85;;;2.97;;
13147;SDS011;6639;50.956;4.242;2024-02-16T08:39:39;3.92;;;2.90;;
13147;SDS011;6639;50.956;4.242;2024-02-16T08:42:06;6.43;;;3.10;;
13147;SDS011;6639;50.956;4.242;2024-02-16T08:44:33;4.47;;;3.25;;
13147;SDS011;6639;50.956;4.242;2024-02-16T08:47:01;6.38;;;4.13;;
13147;SDS011;6639;50.956;4.242;2024-02-16T08:49:28;4.93;;;3.38;;
13147;SDS011;6639;50.956;4.242;2024-02-16T08:51:55;7.15;;;3.30;;
13147;SDS011;6639;50.956;4.242;2024-02-16T08:54:22;5.30;;;3.88;;
13147;SDS011;6639;50.956;4.242;2024-02-16T08:56:52;4.57;;;3.25;;
13147;SDS011;6639;50.956;4.242;2024-02-16T08:59:20;4.70;;;3.75;;
13147;SDS011;6639;50.956;4.242;2024-02-16T09:01:47;6.13;;;3.38;;
13147;SDS011;6639;50.956;4.242;2024-02-16T09:04:13;7.55;;;3.33;;
13147;SDS011;6639;50.956;4.242;2024-02-16T09:06:41;5.85;;;3.45;;
13147;SDS011;6639;50.956;4.242;2024-02-16T09:09:09;7.70;;;4.00;;
13147;SDS011;6639;50.956;4.242;2024-02-16T09:11:36;5.90;;;3.67;;
13147;SDS011;6639;50.956;4.242;2024-02-16T09:14:04;6.68;;;4.30;;
13147;SDS011;6639;50.956;4.242;2024-02-16T09:16:31;4.10;;;3.55;;
13147;SDS011;6639;50.956;4.242;2024-02-16T09:18:58;5.78;;;3.47;;
13147;SDS011;6639;50.956;4.242;2024-02-16T09:21:25;5.78;;;3.75;;
13147;SDS011;6639;50.956;4.242;2024-02-16T09:23:54;6.72;;;4.10;;
13147;SDS011;6639;50.956;4.242;2024-02-16T09:26:23;6.72;;;3.80;;
13147;SDS011;6639;50.956;4.242;2024-02-16T09:28:55;4.00;;;3.45;;
13147;SDS011;6639;50.956;4.242;2024-02-16T09:31:23;8.63;;;4.18;;
13147;SDS011;6639;50.956;4.242;2024-02-16T09:33:51;6.60;;;3.90;;
13147;SDS011;6639;50.956;4.242;2024-02-16T09:36:18;6.82;;;3.85;;
13147;SDS011;6639;50.956;4.242;2024-02-16T09:38:45;6.00;;;4.03;;
13147;SDS011;6639;50.956;4.242;2024-02-16T09:41:12;6.18;;;3.65;;
13147;SDS011;6639;50.956;4.242;2024-02-16T09:43:41;6.93;;;4.03;;
13147;SDS011;6639;50.956;4.242;2024-02-16T09:46:08;9.00;;;4.40;;
13147;SDS011;6639;50.956;4.242;2024-02-16T09:48:36;6.93;;;3.88;;
13147;SDS011;6639;50.956;4.242;2024-02-16T09:51:06;6.47;;;4.05;;
13147;SDS011;6639;50.956;4.242;2024-02-16T09:53:34;8.88;;;4.55;;
13147;SDS011;6639;50.956;4.242;2024-02-16T09:56:01;7.65;;;3.80;;
13147;SDS011;6639;50.956;4.242;2024-02-16T09:58:30;5.40;;;4.30;;
13147;SDS011;6639;50.956;4.242;2024-02-16T10:00:57;10.65;;;4.93;;
13147;SDS011;6639;50.956;4.242;2024-02-16T10:03:24;8.80;;;4.82;;
13147;SDS011;6639;50.956;4.242;2024-02-16T10:06:03;7.50;;;5.07;;
13147;SDS011;6639;50.956;4.242;2024-02-16T10:08:31;7.80;;;4.72;;
13147;SDS011;6639;50.956;4.242;2024-02-16T10:11:01;6.30;;;4.72;;
13147;SDS011;6639;50.956;4.242;2024-02-16T10:13:29;7.25;;;4.78;;
13147;SDS011;6639;50.956;4.242;2024-02-16T10:16:06;6.97;;;4.57;;
13147;SDS011;6639;50.956;4.242;2024-02-16T10:18:34;8.65;;;4.88;;
13147;SDS011;6639;50.956;4.242;2024-02-16T10:21:03;8.50;;;5.32;;
13147;SDS011;6639;50.956;4.242;2024-02-16T10:23:30;7.15;;;4.78;;
13147;SDS011;6639;50.956;4.242;2024-02-16T10:25:57;10.68;;;5.18;;
13147;SDS011;6639;50.956;4.242;2024-02-16T10:28:25;6.35;;;5.15;;
13147;SDS011;6639;50.956;4.242;2024-02-16T10:30:56;8.30;;;5.50;;
13147;SDS011;6639;50.956;4.242;2024-02-16T10:33:24;8.27;;;5.65;;
13147;SDS011;6639;50.956;4.242;2024-02-16T10:35:53;6.95;;;4.82;;
13147;SDS011;6639;50.956;4.242;2024-02-16T10:38:23;6.95;;;5.22;;
13147;SDS011;6639;50.956;4.242;2024-02-16T10:40:52;11.82;;;5.60;;
13147;SDS011;6639;50.956;4.242;2024-02-16T10:43:20;7.13;;;6.50;;
13147;SDS011;6639;50.956;4.242;2024-02-16T10:45:47;9.75;;;6.18;;
13147;SDS011;6639;50.956;4.242;2024-02-16T10:48:18;9.48;;;5.88;;
13147;SDS011;6639;50.956;4.242;2024-02-16T10:50:45;7.18;;;5.78;;
13147;SDS011;6639;50.956;4.242;2024-02-16T10:53:17;7.45;;;6.10;;
13147;SDS011;6639;50.956;4.242;2024-02-16T10:55:51;7.50;;;5.68;;
13147;SDS011;6639;50.956;4.242;2024-02-16T10:58:18;6.57;;;5.07;;
13147;SDS011;6639;50.956;4.242;2024-02-16T11:00:49;7.40;;;6.00;;
13147;SDS011;6639;50.956;4.242;2024-02-16T11:03:21;10.73;;;6.43;;
13147;SDS011;6639;50.956;4.242;2024-02-16T11:05:50;7.43;;;6.22;;
13147;SDS011;6639;50.956;4.242;2024-02-16T11:08:17;7.95;;;6.93;;
13147;SDS011;6639;50.956;4.242;2024-02-16T11:10:56;6.93;;;5.68;;
13147;SDS011;6639;50.956;4.242;2024-02-16T11:13:24;10.25;;;6.68;;
13147;SDS011;6639;50.956;4.242;2024-02-16T11:15:58;10.98;;;6.90;;
13147;SDS011;6639;50.956;4.242;2024-02-16T11:18:26;8.82;;;6.32;;
13147;SDS011;6639;50.956;4.242;2024-02-16T11:20:53;9.65;;;6.78;;
13147;SDS011;6639;50.956;4.242;2024-02-16T11:23:24;6.97;;;6.05;;
13147;SDS011;6639;50.956;4.242;2024-02-16T11:25:53;7.90;;;6.05;;
13147;SDS011;6639;50.956;4.242;2024-02-16T11:28:21;8.35;;;7.25;;
13147;SDS011;6639;50.956;4.242;2024-02-16T11:30:50;11.27;;;7.53;;
13147;SDS011;6639;50.956;4.242;2024-02-16T11:33:17;11.43;;;7.40;;
13147;SDS011;6639;50.956;4.242;2024-02-16T11:35:51;7.43;;;6.75;;
13147;SDS011;6639;50.956;4.242;2024-02-16T11:38:19;10.32;;;7.90;;
13147;SDS011;6639;50.956;4.242;2024-02-16T11:40:52;8.93;;;7.10;;
13147;SDS011;6639;50.956;4.242;2024-02-16T11:43:22;11.98;;;7.90;;
13147;SDS011;6639;50.956;4.242;2024-02-16T11:45:49;12.18;;;7.13;;
13147;SDS011;6639;50.956;4.242;2024-02-16T11:48:18;8.15;;;6.55;;
13147;SDS011;6639;50.956;4.242;2024-02-16T11:50:47;8.52;;;7.72;;
13147;SDS011;6639;50.956;4.242;2024-02-16T11:53:15;8.55;;;7.65;;
13147;SDS011;6639;50.956;4.242;2024-02-16T11:55:46;8.13;;;7.38;;
13147;SDS011;6639;50.956;4.242;2024-02-16T11:58:14;8.90;;;8.10;;
13147;SDS011;6639;50.956;4.242;2024-02-16T12:00:44;8.50;;;7.70;;
13147;SDS011;6639;50.956;4.242;2024-02-16T12:03:11;8.55;;;7.57;;
13147;SDS011;6639;50.956;4.242;2024-02-16T12:05:38;8.23;;;7.53;;
13147;SDS011;6639;50.956;4.242;2024-02-16T12:08:05;8.80;;;8.00;;
13147;SDS011;6639;50.956;4.242;2024-02-16T12:10:33;7.85;;;7.20;;
13147;SDS011;6639;50.956;4.242;2024-02-16T12:13:01;8.90;;;8.02;;
13147;SDS011;6639;50.956;4.242;2024-02-16T12:15:30;8.93;;;7.72;;
13147;SDS011;6639;50.956;4.242;2024-02-16T12:17:59;8.32;;;7.55;;
13147;SDS011;6639;50.956;4.242;2024-02-16T12:20:27;8.65;;;7.50;;
13147;SDS011;6639;50.956;4.242;2024-02-16T12:22:56;8.27;;;7.57;;
13147;SDS011;6639;50.956;4.242;2024-02-16T12:25:24;8.60;;;7.53;;
13147;SDS011;6639;50.956;4.242;2024-02-16T12:27:51;8.70;;;7.80;;
13147;SDS011;6639;50.956;4.242;2024-02-16T12:30:18;9.27;;;8.23;;
13147;SDS011;6639;50.956;4.242;2024-02-16T12:32:45;8.57;;;7.78;;
13147;SDS011;6639;50.956;4.242;2024-02-16T12:35:13;8.20;;;7.50;;
13147;SDS011;6639;50.956;4.242;2024-02-16T12:37:40;8.68;;;7.88;;
13147;SDS011;6639;50.956;4.242;2024-02-16T12:40:08;8.45;;;7.65;;
13147;SDS011;6639;50.956;4.242;2024-02-16T12:42:35;9.07;;;8.23;;
13147;SDS011;6639;50.956;4.242;2024-02-16T12:45:03;8.57;;;7.78;;
13147;SDS011;6639;50.956;4.242;2024-02-16T12:47:30;9.23;;;8.25;;
13147;SDS011;6639;50.956;4.242;2024-02-16T12:49:57;10.07;;;8.50;;
13147;SDS011;6639;50.956;4.242;2024-02-16T12:52:25;8.15;;;7.38;;
13147;SDS011;6639;50.956;4.242;2024-02-16T12:54:52;7.95;;;7.18;;
13147;SDS011;6639;50.956;4.242;2024-02-16T12:57:20;9.70;;;7.70;;
13147;SDS011;6639;50.956;4.242;2024-02-16T12:59:47;7.45;;;6.70;;
13147;SDS011;6639;50.956;4.242;2024-02-16T13:02:14;8.50;;;6.63;;
13147;SDS011;6639;50.956;4.242;2024-02-16T13:04:41;7.43;;;6.72;;
13147;SDS011;6639;50.956;4.242;2024-02-16T13:07:08;9.20;;;8.40;;
13147;SDS011;6639;50.956;4.242;2024-02-16T13:09:37;9.98;;;8.65;;
13147;SDS011;6639;50.956;4.242;2024-02-16T13:12:04;9.27;;;8.55;;
13147;SDS011;6639;50.956;4.242;2024-02-16T13:14:32;9.48;;;8.68;;
13147;SDS011;6639;50.956;4.242;2024-02-16T13:16:58;11.07;;;10.02;;
13147;SDS011;6639;50.956;4.242;2024-02-16T13:19:25;12.10;;;10.90;;
13147;SDS011;6639;50.956;4.242;2024-02-16T13:21:52;13.60;;;12.40;;
13147;SDS011;6639;50.956;4.242;2024-02-16T13:24:19;15.07;;;13.73;;
13147;SDS011;6639;50.956;4.242;2024-02-16T13:26:48;15.13;;;13.80;;
13147;SDS011;6639;50.956;4.242;2024-02-16T13:29:15;17.33;;;15.73;;
13147;SDS011;6639;50.956;4.242;2024-02-16T13:31:41;16.83;;;15.27;;
13147;SDS011;6639;50.956;4.242;2024-02-16T13:34:08;15.43;;;13.98;;
13147;SDS011;6639;50.956;4.242;2024-02-16T13:36:35;13.68;;;12.43;;
13147;SDS011;6639;50.956;4.242;2024-02-16T13:39:02;10.70;;;9.80;;
13147;SDS011;6639;50.956;4.242;2024-02-16T13:41:30;9.02;;;8.32;;
13147;SDS011;6639;50.956;4.242;2024-02-16T13:43:59;8.20;;;7.55;;
13147;SDS011;6639;50.956;4.242;2024-02-16T13:46:26;6.80;;;6.30;;
13147;SDS011;6639;50.956;4.242;2024-02-16T13:48:53;5.55;;;5.15;;
13147;SDS011;6639;50.956;4.242;2024-02-16T13:51:21;5.90;;;5.18;;
13147;SDS011;6639;50.956;4.242;2024-02-16T13:53:49;6.20;;;5.68;;
13147;SDS011;6639;50.956;4.242;2024-02-16T13:56:16;5.75;;;5.22;;
13147;SDS011;6639;50.956;4.242;2024-02-16T13:58:43;5.93;;;5.40;;
13147;SDS011;6639;50.956;4.242;2024-02-16T14:01:13;5.03;;;4.53;;
13147;SDS011;6639;50.956;4.242;2024-02-16T14:03:41;4.88;;;4.57;;
13147;SDS011;6639;50.956;4.242;2024-02-16T14:06:08;4.85;;;4.45;;
13147;SDS011;6639;50.956;4.242;2024-02-16T14:08:36;5.18;;;4.68;;
13147;SDS011;6639;50.956;4.242;2024-02-16T14:11:03;5.13;;;3.85;;
13147;SDS011;6639;50.956;4.242;2024-02-16T14:13:30;4.30;;;3.80;;
13147;SDS011;6639;50.956;4.242;2024-02-16T14:15:57;4.47;;;4.10;;
13147;SDS011;6639;50.956;4.242;2024-02-16T14:18:25;3.88;;;3.55;;
13147;SDS011;6639;50.956;4.242;2024-02-16T14:20:52;3.88;;;3.67;;
13147;SDS011;6639;50.956;4.242;2024-02-16T14:23:19;3.72;;;3.38;;
13147;SDS011;6639;50.956;4.242;2024-02-16T14:25:46;3.88;;;3.58;;
13147;SDS011;6639;50.956;4.242;2024-02-16T14:28:13;3.88;;;3.53;;
13147;SDS011;6639;50.956;4.242;2024-02-16T14:30:40;3.50;;;3.20;;
13147;SDS011;6639;50.956;4.242;2024-02-16T14:33:07;3.53;;;3.22;;
13147;SDS011;6639;50.956;4.242;2024-02-16T14:35:36;3.50;;;3.20;;
13147;SDS011;6639;50.956;4.242;2024-02-16T14:38:03;3.58;;;3.28;;
13147;SDS011;6639;50.956;4.242;2024-02-16T14:40:30;3.78;;;3.47;;
13147;SDS011;6639;50.956;4.242;2024-02-16T14:42:58;3.97;;;3.67;;
13147;SDS011;6639;50.956;4.242;2024-02-16T14:45:25;3.15;;;2.97;;
13147;SDS011;6639;50.956;4.242;2024-02-16T14:47:51;3.55;;;3.25;;
13147;SDS011;6639;50.956;4.242;2024-02-16T14:50:18;4.15;;;3.80;;
13147;SDS011;6639;50.956;4.242;2024-02-16T14:52:49;4.60;;;4.20;;
13147;SDS011;6639;50.956;4.242;2024-02-16T14:55:16;4.38;;;4.05;;
13147;SDS011;6639;50.956;4.242;2024-02-16T14:57:43;4.25;;;3.90;;
13147;SDS011;6639;50.956;4.242;2024-02-16T15:00:10;3.58;;;3.22;;
13147;SDS011;6639;50.956;4.242;2024-02-16T15:02:38;4.65;;;3.33;;